createdAt,value
2019-03-03T00:00:22.490Z,6.67
2019-03-03T00:02:51.295Z,7.80
2019-03-03T00:05:19.782Z,7.03
2019-03-03T00:07:48.203Z,14.38
2019-03-03T00:10:16.845Z,9.88
2019-03-03T00:12:45.259Z,6.75
2019-03-03T00:15:13.993Z,13.60
2019-03-03T00:17:42.477Z,13.13
2019-03-03T00:20:12.926Z,2.77
2019-03-03T00:22:41.415Z,2.95
2019-03-03T00:25:11.404Z,4.80
2019-03-03T00:27:39.957Z,4.05
2019-03-03T00:30:13.856Z,12.65
2019-03-03T00:32:42.312Z,7.78
2019-03-03T00:35:10.932Z,12.40
2019-03-03T00:37:53.040Z,3.05
2019-03-03T00:40:39.379Z,5.20
2019-03-03T00:43:24.455Z,2.83
2019-03-03T00:46:12.022Z,2.95
2019-03-03T00:48:47.790Z,5.00
2019-03-03T00:51:17.863Z,4.85
2019-03-03T00:53:47.991Z,6.37
2019-03-03T00:56:18.075Z,3.20
2019-03-03T00:59:00.062Z,3.98
2019-03-03T01:01:39.029Z,7.05
2019-03-03T01:04:15.515Z,4.30
2019-03-03T01:06:54.944Z,5.10
2019-03-03T01:09:43.463Z,7.08
2019-03-03T01:12:13.682Z,4.00
2019-03-03T01:14:59.960Z,3.02
2019-03-03T01:17:32.938Z,5.70
2019-03-03T01:20:15.127Z,7.25
2019-03-03T01:23:03.157Z,4.97
2019-03-03T01:25:31.466Z,6.78
2019-03-03T01:27:59.899Z,5.78
2019-03-03T01:30:28.411Z,3.70
2019-03-03T01:32:56.883Z,6.67
2019-03-03T01:35:25.360Z,3.10
2019-03-03T01:37:53.797Z,3.25
2019-03-03T01:40:22.308Z,3.90
2019-03-03T01:42:50.814Z,4.20
2019-03-03T01:45:19.449Z,3.05
2019-03-03T01:47:47.901Z,2.50
2019-03-03T01:50:16.381Z,3.30
2019-03-03T01:52:45.161Z,2.50
2019-03-03T01:55:14.015Z,3.55
2019-03-03T01:57:42.493Z,4.28
2019-03-03T02:00:28.096Z,2.90
2019-03-03T02:03:01.343Z,4.85
2019-03-03T02:05:29.915Z,5.92
2019-03-03T02:07:58.456Z,5.30
2019-03-03T02:10:27.044Z,2.40
2019-03-03T02:12:55.645Z,4.30
2019-03-03T02:15:24.390Z,4.05
2019-03-03T02:17:53.178Z,3.10
2019-03-03T02:20:21.744Z,3.95
2019-03-03T02:22:50.158Z,3.70
2019-03-03T02:25:18.747Z,4.85
2019-03-03T02:27:47.163Z,4.65
2019-03-03T02:30:18.793Z,5.08
2019-03-03T02:32:47.450Z,6.15
2019-03-03T02:35:15.999Z,3.65
2019-03-03T02:37:44.645Z,5.90
2019-03-03T02:40:18.425Z,5.12
2019-03-03T02:42:46.977Z,4.33
2019-03-03T02:45:16.695Z,6.42
2019-03-03T02:47:45.264Z,5.92
2019-03-03T02:50:17.083Z,3.90
2019-03-03T02:52:45.669Z,6.12
2019-03-03T02:55:15.663Z,7.30
2019-03-03T02:57:44.567Z,3.22
2019-03-03T03:00:20.933Z,4.17
2019-03-03T03:02:53.855Z,4.10
2019-03-03T03:05:31.340Z,4.58
2019-03-03T03:08:01.402Z,6.42
2019-03-03T03:10:43.011Z,3.87
2019-03-03T03:13:15.809Z,4.92
2019-03-03T03:15:45.889Z,8.28
2019-03-03T03:18:21.566Z,4.80
2019-03-03T03:21:07.072Z,5.75
2019-03-03T03:23:39.592Z,7.28
2019-03-03T03:26:09.685Z,4.78
2019-03-03T03:28:42.457Z,6.33
2019-03-03T03:31:28.861Z,4.42
2019-03-03T03:34:10.702Z,8.00
2019-03-03T03:36:43.291Z,5.05
2019-03-03T03:39:19.415Z,6.22
2019-03-03T03:42:01.408Z,3.40
2019-03-03T03:44:40.726Z,4.67
2019-03-03T03:47:13.510Z,5.55
2019-03-03T03:49:49.528Z,4.78
2019-03-03T03:52:25.790Z,5.08
2019-03-03T03:55:05.565Z,5.42
2019-03-03T03:57:41.590Z,6.15
2019-03-03T04:00:15.025Z,7.20
2019-03-03T04:02:45.093Z,8.18
2019-03-03T04:05:31.348Z,5.87
2019-03-03T04:08:07.381Z,4.70
2019-03-03T04:10:49.527Z,4.95
2019-03-03T04:13:31.231Z,6.37
2019-03-03T04:16:19.604Z,6.55
2019-03-03T04:18:52.717Z,6.25
2019-03-03T04:21:25.942Z,5.83
2019-03-03T04:24:05.256Z,6.85
2019-03-03T04:26:46.823Z,6.30
2019-03-03T04:29:16.977Z,7.75
2019-03-03T04:31:47.030Z,5.47
2019-03-03T04:34:32.508Z,6.45
2019-03-03T04:37:14.847Z,5.83
2019-03-03T04:39:57.138Z,8.30
2019-03-03T04:42:43.818Z,6.75
2019-03-03T04:45:14.238Z,6.60
2019-03-03T04:47:56.298Z,8.33
2019-03-03T04:50:29.206Z,5.95
2019-03-03T04:53:11.337Z,3.98
2019-03-03T04:55:44.527Z,5.75
2019-03-03T04:58:30.679Z,4.95
2019-03-03T05:01:00.782Z,8.95
2019-03-03T05:03:33.323Z,8.13
2019-03-03T05:06:06.730Z,6.22
2019-03-03T05:08:36.867Z,5.55
2019-03-03T05:11:15.757Z,7.15
2019-03-03T05:13:51.720Z,8.53
2019-03-03T05:16:30.545Z,8.13
2019-03-03T05:19:00.639Z,4.78
2019-03-03T05:21:29.052Z,5.85
2019-03-03T05:23:57.468Z,7.00
2019-03-03T05:26:25.986Z,12.15
2019-03-03T05:28:54.428Z,7.53
2019-03-03T05:31:22.864Z,10.58
2019-03-03T05:33:51.287Z,8.45
2019-03-03T05:36:19.797Z,7.33
2019-03-03T05:38:48.217Z,7.50
2019-03-03T05:41:16.622Z,6.22
2019-03-03T05:43:45.107Z,6.72
2019-03-03T05:46:13.524Z,7.08
2019-03-03T05:48:41.972Z,8.35
2019-03-03T05:51:10.469Z,4.80
2019-03-03T05:53:38.878Z,5.33
2019-03-03T05:56:07.312Z,9.65
2019-03-03T05:58:35.734Z,8.80
2019-03-03T06:01:04.429Z,7.80
2019-03-03T06:03:32.931Z,6.92
2019-03-03T06:06:01.354Z,6.28
2019-03-03T06:08:29.766Z,7.05
2019-03-03T06:10:58.397Z,9.83
2019-03-03T06:13:26.816Z,11.43
2019-03-03T06:15:55.238Z,8.23
2019-03-03T06:18:23.758Z,11.40
2019-03-03T06:20:52.177Z,5.72
2019-03-03T06:23:20.687Z,5.10
2019-03-03T06:25:49.131Z,7.15
2019-03-03T06:28:17.584Z,8.63
2019-03-03T06:30:46.094Z,5.87
2019-03-03T06:33:14.611Z,8.60
2019-03-03T06:35:43.102Z,6.92
2019-03-03T06:38:11.635Z,7.45
2019-03-03T06:40:40.122Z,4.70
2019-03-03T06:43:08.544Z,8.88
2019-03-03T06:45:37.054Z,11.88
2019-03-03T06:48:05.618Z,7.05
2019-03-03T06:50:34.131Z,6.90
2019-03-03T06:53:02.572Z,6.92
2019-03-03T06:55:31.019Z,10.28
2019-03-03T06:57:59.436Z,10.90
2019-03-03T07:00:27.911Z,11.83
2019-03-03T07:02:56.349Z,7.22
2019-03-03T07:05:26.093Z,8.88
2019-03-03T07:07:54.607Z,8.28
2019-03-03T07:10:23.026Z,8.40
2019-03-03T07:12:51.454Z,7.45
2019-03-03T07:15:19.893Z,6.45
2019-03-03T07:17:48.348Z,9.48
2019-03-03T07:20:16.878Z,7.85
2019-03-03T07:22:45.363Z,7.70
2019-03-03T07:25:14.616Z,12.03
2019-03-03T07:27:43.154Z,8.43
2019-03-03T07:30:13.807Z,6.80
2019-03-03T07:32:47.004Z,8.13
2019-03-03T07:35:15.454Z,5.35
2019-03-03T07:37:43.867Z,3.90
2019-03-03T07:40:12.424Z,8.03
2019-03-03T07:42:40.900Z,7.45
2019-03-03T07:45:14.718Z,7.03
2019-03-03T07:47:43.209Z,9.83
2019-03-03T07:50:11.793Z,5.75
2019-03-03T07:52:40.209Z,6.40
2019-03-03T07:55:10.080Z,6.05
2019-03-03T07:57:38.652Z,8.28
2019-03-03T08:00:10.257Z,6.35
2019-03-03T08:02:38.753Z,10.43
2019-03-03T08:05:08.904Z,10.93
2019-03-03T08:07:37.691Z,6.95
2019-03-03T08:10:13.473Z,7.80
2019-03-03T08:12:42.041Z,5.37
2019-03-03T08:15:19.498Z,6.87
2019-03-03T08:17:48.090Z,7.58
2019-03-03T08:20:16.701Z,10.10
2019-03-03T08:22:45.245Z,5.33
2019-03-03T08:25:14.317Z,10.03
2019-03-03T08:27:42.873Z,17.95
2019-03-03T08:30:16.686Z,13.72
2019-03-03T08:32:45.167Z,7.05
2019-03-03T08:35:16.097Z,8.20
2019-03-03T08:37:44.716Z,10.88
2019-03-03T08:40:13.297Z,7.58
2019-03-03T08:42:55.245Z,12.18
2019-03-03T08:45:25.342Z,12.75
2019-03-03T08:48:13.476Z,11.68
2019-03-03T08:50:46.481Z,9.08
2019-03-03T08:53:19.057Z,16.25
2019-03-03T08:55:49.121Z,23.32
2019-03-03T08:58:24.811Z,7.58
2019-03-03T09:01:01.763Z,17.80
2019-03-03T09:03:40.833Z,9.90
2019-03-03T09:06:11.286Z,9.90
2019-03-03T09:08:47.503Z,14.53
2019-03-03T09:11:26.861Z,16.55
2019-03-03T09:14:06.249Z,7.70
2019-03-03T09:16:53.126Z,8.60
2019-03-03T09:19:39.341Z,6.20
2019-03-03T09:22:09.513Z,5.45
2019-03-03T09:24:56.168Z,8.83
2019-03-03T09:27:38.414Z,6.75
2019-03-03T09:30:17.741Z,17.50
2019-03-03T09:33:04.160Z,7.47
2019-03-03T09:35:40.257Z,6.65
2019-03-03T09:38:10.368Z,8.43
2019-03-03T09:40:45.925Z,5.62
2019-03-03T09:43:18.413Z,4.45
2019-03-03T09:45:51.535Z,7.17
2019-03-03T09:48:25.342Z,4.65
2019-03-03T09:50:55.491Z,7.30
2019-03-03T09:53:31.572Z,7.50
2019-03-03T09:56:04.436Z,7.33
2019-03-03T09:58:50.463Z,9.28
2019-03-03T10:01:20.626Z,7.10
2019-03-03T10:04:02.810Z,6.55
2019-03-03T10:06:35.950Z,7.90
2019-03-03T10:09:13.731Z,7.10
2019-03-03T10:11:55.920Z,5.97
2019-03-03T10:14:25.988Z,9.88
2019-03-03T10:17:08.334Z,6.45
2019-03-03T10:19:50.445Z,6.67
2019-03-03T10:22:20.577Z,7.65
2019-03-03T10:24:59.789Z,10.63
2019-03-03T10:27:38.710Z,9.78
2019-03-03T10:30:27.034Z,6.67
2019-03-03T10:33:05.782Z,7.37
2019-03-03T10:35:41.671Z,4.90
2019-03-03T10:38:20.908Z,8.45
2019-03-03T10:41:07.294Z,5.40
2019-03-03T10:43:43.583Z,8.50
2019-03-03T10:46:22.740Z,7.55
2019-03-03T10:48:55.549Z,10.38
2019-03-03T10:51:32.734Z,8.78
2019-03-03T10:54:03.019Z,6.05
2019-03-03T10:56:33.271Z,8.05
2019-03-03T10:59:03.415Z,11.15
2019-03-03T11:01:50.173Z,7.67
2019-03-03T11:04:20.231Z,11.78
2019-03-03T11:06:50.540Z,10.25
2019-03-03T11:09:28.376Z,5.97
2019-03-03T11:12:15.740Z,11.35
2019-03-03T11:14:45.865Z,5.25
2019-03-03T11:17:16.089Z,8.88
2019-03-03T11:19:52.354Z,6.60
2019-03-03T11:22:22.823Z,8.35
2019-03-03T11:24:58.819Z,8.48
2019-03-03T11:27:38.229Z,8.10
2019-03-03T11:30:16.219Z,9.93
2019-03-03T11:32:46.364Z,6.45
2019-03-03T11:35:33.367Z,13.40
2019-03-03T11:38:09.409Z,8.18
2019-03-03T11:40:42.197Z,8.50
2019-03-03T11:43:24.499Z,9.68
2019-03-03T11:46:09.738Z,9.48
2019-03-03T11:48:39.826Z,6.10
2019-03-03T11:51:13.054Z,6.62
2019-03-03T11:53:45.861Z,8.48
2019-03-03T11:56:16.087Z,5.90
2019-03-03T11:58:55.329Z,7.12
2019-03-03T12:01:37.509Z,7.37
2019-03-03T12:04:10.808Z,6.92
2019-03-03T12:06:59.357Z,7.70
2019-03-03T12:09:35.621Z,5.72
2019-03-03T12:12:15.160Z,4.15
2019-03-03T12:14:48.315Z,7.22
2019-03-03T12:17:18.532Z,8.85
2019-03-03T12:20:07.128Z,8.20
2019-03-03T12:22:43.234Z,8.05
2019-03-03T12:25:13.352Z,13.18
2019-03-03T12:27:59.735Z,8.33
2019-03-03T12:30:35.871Z,4.42
2019-03-03T12:33:21.202Z,5.28
2019-03-03T12:35:54.226Z,13.00
2019-03-03T12:38:24.372Z,10.23
2019-03-03T12:41:12.734Z,11.03
2019-03-03T12:43:51.686Z,13.15
2019-03-03T12:46:24.785Z,7.15
2019-03-03T12:48:57.863Z,8.88
2019-03-03T12:51:43.102Z,9.03
2019-03-03T12:54:13.203Z,9.63
2019-03-03T12:56:55.269Z,12.73
2019-03-03T12:59:31.410Z,8.90
2019-03-03T13:02:01.483Z,6.62
2019-03-03T13:04:40.607Z,6.75
2019-03-03T13:07:27.027Z,3.10
2019-03-03T13:10:05.683Z,7.87
2019-03-03T13:12:35.843Z,7.08
2019-03-03T13:15:11.516Z,11.93
2019-03-03T13:17:48.159Z,5.33
2019-03-03T13:20:26.071Z,5.30
2019-03-03T13:23:08.259Z,4.00
2019-03-03T13:25:40.815Z,4.58
2019-03-03T13:28:10.987Z,7.12
2019-03-03T13:30:57.287Z,5.55
2019-03-03T13:33:27.387Z,6.17
2019-03-03T13:35:57.522Z,4.40
2019-03-03T13:38:36.610Z,3.33
2019-03-03T13:41:09.839Z,5.42
2019-03-03T13:43:38.253Z,4.87
2019-03-03T13:46:06.852Z,5.22
2019-03-03T13:48:35.284Z,7.45
2019-03-03T13:51:03.760Z,5.17
2019-03-03T13:53:32.214Z,5.62
2019-03-03T13:56:00.719Z,3.62
2019-03-03T13:58:29.323Z,4.72
2019-03-03T14:00:58.324Z,5.92
2019-03-03T14:03:26.762Z,6.10
2019-03-03T14:05:55.266Z,3.75
2019-03-03T14:08:23.789Z,2.95
2019-03-03T14:10:52.331Z,6.80
2019-03-03T14:13:20.891Z,4.72
2019-03-03T14:15:49.379Z,4.05
2019-03-03T14:18:17.909Z,5.40
2019-03-03T14:20:46.405Z,4.67
2019-03-03T14:23:14.907Z,5.95
2019-03-03T14:25:43.502Z,5.85
2019-03-03T14:28:12.009Z,8.20
2019-03-03T14:30:40.544Z,3.35
2019-03-03T14:33:09.092Z,4.25
2019-03-03T14:35:37.631Z,6.37
2019-03-03T14:38:06.123Z,2.80
2019-03-03T14:40:34.654Z,4.37
2019-03-03T14:43:03.152Z,3.77
2019-03-03T14:45:31.750Z,5.42
2019-03-03T14:48:00.175Z,3.95
2019-03-03T14:50:28.677Z,2.42
2019-03-03T14:52:59.086Z,5.40
2019-03-03T14:55:27.611Z,3.67
2019-03-03T14:57:56.062Z,3.77
2019-03-03T15:00:29.673Z,4.47
2019-03-03T15:02:59.863Z,3.67
2019-03-03T15:05:28.623Z,4.67
2019-03-03T15:07:57.346Z,2.98
2019-03-03T15:10:25.840Z,5.05
2019-03-03T15:12:54.416Z,5.08
2019-03-03T15:15:25.673Z,4.22
2019-03-03T15:17:54.265Z,5.50
2019-03-03T15:20:22.732Z,5.45
2019-03-03T15:22:51.245Z,4.05
2019-03-03T15:25:19.828Z,7.12
2019-03-03T15:27:48.423Z,7.53
2019-03-03T15:30:21.809Z,6.60
2019-03-03T15:32:50.555Z,9.15
2019-03-03T15:35:19.133Z,6.15
2019-03-03T15:37:47.846Z,4.37
2019-03-03T15:40:21.236Z,5.53
2019-03-03T15:42:49.833Z,4.55
2019-03-03T15:45:21.079Z,4.90
2019-03-03T15:47:49.649Z,2.95
2019-03-03T15:50:19.727Z,5.85
2019-03-03T15:52:49.044Z,3.75
2019-03-03T15:55:25.976Z,2.98
2019-03-03T15:57:54.441Z,4.42
2019-03-03T16:00:46.386Z,5.00
2019-03-03T16:03:15.127Z,3.95
2019-03-03T16:05:43.909Z,4.22
2019-03-03T16:08:12.329Z,3.45
2019-03-03T16:10:40.803Z,4.20
2019-03-03T16:13:09.304Z,3.62
2019-03-03T16:15:37.871Z,3.75
2019-03-03T16:18:06.484Z,5.30
2019-03-03T16:20:35.087Z,7.05
2019-03-03T16:23:03.571Z,6.70
2019-03-03T16:25:32.174Z,4.85
2019-03-03T16:28:00.599Z,4.83
2019-03-03T16:30:29.187Z,4.40
2019-03-03T16:32:57.722Z,4.35
2019-03-03T16:35:26.222Z,3.15
2019-03-03T16:37:54.667Z,3.42
2019-03-03T16:40:24.248Z,5.03
2019-03-03T16:42:52.799Z,4.37
2019-03-03T16:45:21.683Z,3.30
2019-03-03T16:47:50.358Z,3.62
2019-03-03T16:50:20.464Z,5.15
2019-03-03T16:52:49.393Z,2.70
2019-03-03T16:55:19.110Z,3.72
2019-03-03T16:57:47.733Z,3.87
2019-03-03T17:00:19.408Z,5.67
2019-03-03T17:02:47.999Z,4.55
2019-03-03T17:05:19.102Z,3.05
2019-03-03T17:07:47.641Z,2.27
2019-03-03T17:10:16.226Z,4.75
2019-03-03T17:12:44.720Z,4.72
2019-03-03T17:15:15.721Z,2.00
2019-03-03T17:17:44.221Z,3.00
2019-03-03T17:20:12.862Z,3.58
2019-03-03T17:22:41.473Z,3.12
2019-03-03T17:25:21.820Z,3.42
2019-03-03T17:27:50.287Z,1.95
2019-03-03T17:30:20.844Z,2.83
2019-03-03T17:32:49.453Z,3.72
2019-03-03T17:35:18.022Z,3.58
2019-03-03T17:37:46.633Z,2.83
2019-03-03T17:40:23.035Z,2.17
2019-03-03T17:42:51.551Z,3.27
2019-03-03T17:45:21.559Z,2.83
2019-03-03T17:47:50.245Z,3.65
2019-03-03T17:50:26.324Z,3.85
2019-03-03T17:52:54.902Z,2.70
2019-03-03T17:55:23.464Z,4.22
2019-03-03T17:57:52.027Z,3.50
2019-03-03T18:00:29.352Z,2.50
2019-03-03T18:02:59.782Z,3.40
2019-03-03T18:05:28.391Z,2.10
2019-03-03T18:07:57.045Z,4.35
2019-03-03T18:10:25.697Z,1.98
2019-03-03T18:12:54.201Z,6.50
2019-03-03T18:15:22.727Z,4.90
2019-03-03T18:17:51.318Z,7.28
2019-03-03T18:20:21.745Z,5.10
2019-03-03T18:22:50.576Z,4.60
2019-03-03T18:25:22.506Z,2.67
2019-03-03T18:27:51.177Z,2.87
2019-03-03T18:30:29.315Z,3.25
2019-03-03T18:32:57.809Z,3.67
2019-03-03T18:35:26.402Z,2.95
2019-03-03T18:37:54.973Z,4.87
2019-03-03T18:40:25.511Z,7.47
2019-03-03T18:42:54.109Z,5.62
2019-03-03T18:45:23.899Z,4.62
2019-03-03T18:47:52.574Z,4.60
2019-03-03T18:50:23.114Z,3.75
2019-03-03T18:52:51.571Z,4.28
2019-03-03T18:55:20.195Z,5.87
2019-03-03T18:57:48.808Z,7.15
2019-03-03T19:00:22.584Z,3.70
2019-03-03T19:02:51.436Z,4.15
2019-03-03T19:05:20.027Z,6.22
2019-03-03T19:07:48.699Z,5.83
2019-03-03T19:10:19.472Z,6.37
2019-03-03T19:12:48.044Z,4.95
2019-03-03T19:15:20.992Z,3.00
2019-03-03T19:17:49.593Z,4.70
2019-03-03T19:20:22.292Z,3.83
2019-03-03T19:22:51.049Z,3.50
2019-03-03T19:25:19.818Z,5.12
2019-03-03T19:27:48.734Z,3.77
2019-03-03T19:30:28.177Z,6.67
2019-03-03T19:33:15.111Z,4.28
2019-03-03T19:35:43.767Z,2.95
2019-03-03T19:38:12.300Z,3.58
2019-03-03T19:40:40.838Z,3.60
2019-03-03T19:43:09.404Z,4.62
2019-03-03T19:45:52.824Z,2.95
2019-03-03T19:48:21.402Z,3.90
2019-03-03T19:50:49.966Z,2.95
2019-03-03T19:53:18.554Z,5.10
2019-03-03T19:55:47.049Z,3.80
2019-03-03T19:58:15.500Z,3.62
2019-03-03T20:00:44.718Z,2.77
2019-03-03T20:03:13.451Z,2.85
2019-03-03T20:05:42.033Z,3.85
2019-03-03T20:08:10.598Z,2.35
2019-03-03T20:10:39.389Z,3.87
2019-03-03T20:13:08.041Z,2.22
2019-03-03T20:15:37.079Z,3.10
2019-03-03T20:18:07.806Z,3.30
2019-03-03T20:20:37.394Z,2.98
2019-03-03T20:23:05.999Z,2.62
2019-03-03T20:25:34.589Z,3.83
2019-03-03T20:28:03.226Z,4.95
2019-03-03T20:30:32.104Z,2.37
2019-03-03T20:33:00.692Z,3.87
2019-03-03T20:35:29.270Z,2.45
2019-03-03T20:37:57.799Z,3.27
2019-03-03T20:40:27.466Z,3.17
2019-03-03T20:42:56.551Z,2.47
2019-03-03T20:45:32.176Z,4.78
2019-03-03T20:48:00.633Z,2.55
2019-03-03T20:50:29.536Z,2.55
2019-03-03T20:52:58.027Z,4.25
2019-03-03T20:55:31.253Z,3.77
2019-03-03T20:57:59.879Z,3.02
2019-03-03T21:00:30.512Z,3.85
2019-03-03T21:02:59.224Z,5.08
2019-03-03T21:05:27.843Z,3.72
2019-03-03T21:07:56.417Z,2.85
2019-03-03T21:10:26.963Z,3.15
2019-03-03T21:12:55.526Z,1.90
2019-03-03T21:15:24.423Z,2.45
2019-03-03T21:17:52.900Z,7.58
2019-03-03T21:20:24.699Z,3.72
2019-03-03T21:22:53.288Z,3.00
2019-03-03T21:25:21.857Z,3.50
2019-03-03T21:27:51.332Z,2.50
2019-03-03T21:30:27.044Z,3.67
2019-03-03T21:32:55.623Z,3.52
2019-03-03T21:35:24.519Z,4.55
2019-03-03T21:37:53.101Z,2.02
2019-03-03T21:40:23.066Z,2.80
2019-03-03T21:42:51.672Z,2.75
2019-03-03T21:45:21.899Z,3.85
2019-03-03T21:47:50.704Z,3.65
2019-03-03T21:50:23.610Z,2.40
2019-03-03T21:52:52.040Z,4.28
2019-03-03T21:55:20.651Z,3.62
2019-03-03T21:57:49.159Z,3.40
2019-03-03T22:00:48.281Z,2.40
2019-03-03T22:03:16.846Z,3.58
2019-03-03T22:05:45.450Z,3.30
2019-03-03T22:08:13.950Z,4.03
2019-03-03T22:10:42.436Z,3.15
2019-03-03T22:13:12.129Z,1.75
2019-03-03T22:15:40.733Z,2.72
2019-03-03T22:18:09.238Z,2.75
2019-03-03T22:20:38.837Z,3.47
2019-03-03T22:23:07.402Z,2.22
2019-03-03T22:25:35.898Z,3.30
2019-03-03T22:28:04.487Z,3.00
2019-03-03T22:30:32.989Z,1.85
2019-03-03T22:33:01.534Z,2.58
2019-03-03T22:35:29.973Z,1.80
2019-03-03T22:37:58.386Z,2.50
2019-03-03T22:40:26.949Z,3.33
2019-03-03T22:42:55.431Z,2.15
2019-03-03T22:45:23.999Z,3.22
2019-03-03T22:47:52.460Z,1.50
2019-03-03T22:50:21.740Z,2.20
2019-03-03T22:52:50.255Z,2.80
2019-03-03T22:55:22.727Z,4.65
2019-03-03T22:57:51.180Z,3.42
2019-03-03T23:00:45.223Z,1.92
2019-03-03T23:03:25.710Z,2.02
2019-03-03T23:06:08.856Z,2.70
2019-03-03T23:08:55.574Z,1.90
2019-03-03T23:11:30.011Z,2.30
2019-03-03T23:14:10.628Z,3.20
2019-03-03T23:16:42.130Z,2.12
2019-03-03T23:19:39.346Z,2.55
2019-03-03T23:22:16.505Z,2.20
2019-03-03T23:25:00.251Z,1.85
2019-03-03T23:27:29.070Z,1.70
2019-03-03T23:29:57.493Z,3.95
2019-03-03T23:32:26.021Z,2.60
2019-03-03T23:34:54.544Z,2.15
2019-03-03T23:37:22.952Z,2.25
2019-03-03T23:39:51.436Z,2.42
2019-03-03T23:42:19.898Z,2.22
2019-03-03T23:44:48.343Z,2.25
2019-03-03T23:47:16.838Z,1.75
2019-03-03T23:49:45.306Z,2.55
2019-03-03T23:52:13.738Z,2.15
2019-03-03T23:54:42.155Z,3.12
2019-03-03T23:57:10.614Z,2.80
2019-03-03T23:59:39.036Z,7.53
